createdAt,value
2019-04-30T00:01:19.730Z,99829.30
2019-04-30T00:04:08.082Z,99828.39
2019-04-30T00:06:39.519Z,99830.45
2019-04-30T00:09:09.755Z,99822.81
2019-04-30T00:11:39.485Z,99826.83
2019-04-30T00:14:09.488Z,99825.28
2019-04-30T00:16:40.035Z,99832.92
2019-04-30T00:19:10.747Z,99827.44
2019-04-30T00:21:50.083Z,99825.80
2019-04-30T00:24:15.932Z,99827.43
2019-04-30T00:26:51.837Z,99823.38
2019-04-30T00:29:19.087Z,99825.00
2019-04-30T00:31:47.142Z,99826.39
2019-04-30T00:34:15.815Z,99823.61
2019-04-30T00:36:45.982Z,99822.02
2019-04-30T00:39:16.650Z,99822.17
2019-04-30T00:41:47.376Z,99814.45
2019-04-30T00:44:19.962Z,99817.96
2019-04-30T00:46:48.020Z,99813.98
2019-04-30T00:49:22.997Z,99812.83
2019-04-30T00:51:49.879Z,99815.97
2019-04-30T00:54:17.684Z,99807.30
2019-04-30T00:56:46.373Z,99809.33
2019-04-30T00:59:15.247Z,99802.05
2019-04-30T01:02:03.756Z,99807.53
2019-04-30T01:04:47.387Z,99801.55
2019-04-30T01:07:16.009Z,99791.20
2019-04-30T01:09:49.416Z,99791.64
2019-04-30T01:12:17.406Z,99788.62
2019-04-30T01:14:45.100Z,99783.28
2019-04-30T01:17:13.553Z,99784.81
2019-04-30T01:19:45.892Z,99777.69
2019-04-30T01:22:12.319Z,99785.66
2019-04-30T01:24:40.737Z,99777.77
2019-04-30T01:27:10.621Z,99779.31
2019-04-30T01:29:44.187Z,99772.74
2019-04-30T01:32:10.421Z,99772.19
2019-04-30T01:34:39.657Z,99779.48
2019-04-30T01:37:08.740Z,99775.91
2019-04-30T01:39:39.022Z,99778.92
2019-04-30T01:42:11.266Z,99778.45
2019-04-30T01:44:39.207Z,99778.53
2019-04-30T01:47:08.948Z,99781.88
2019-04-30T01:49:42.818Z,99775.81
2019-04-30T01:52:09.499Z,99784.57
2019-04-30T01:54:39.117Z,99785.41
2019-04-30T01:57:24.533Z,99784.81
2019-04-30T02:00:03.801Z,99790.34
2019-04-30T02:02:33.795Z,99790.52
2019-04-30T02:05:02.182Z,99789.99
2019-04-30T02:07:30.535Z,99791.47
2019-04-30T02:09:58.946Z,99787.53
2019-04-30T02:12:29.516Z,99796.56
2019-04-30T02:14:59.515Z,99788.37
2019-04-30T02:17:29.205Z,99791.66
2019-04-30T02:19:59.282Z,99785.66
2019-04-30T02:22:30.959Z,99786.69
2019-04-30T02:24:58.657Z,99783.92
2019-04-30T02:27:29.296Z,99784.51
2019-04-30T02:30:02.047Z,99779.42
2019-04-30T02:32:30.214Z,99776.80
2019-04-30T02:35:09.554Z,99772.24
2019-04-30T02:37:43.259Z,99777.91
2019-04-30T02:40:10.192Z,99771.09
2019-04-30T02:42:39.802Z,99775.12
2019-04-30T02:45:10.293Z,99775.12
2019-04-30T02:47:39.973Z,99769.87
2019-04-30T02:50:15.545Z,99782.69
2019-04-30T02:52:40.477Z,99782.52
2019-04-30T02:55:12.038Z,99776.98
2019-04-30T02:57:40.386Z,99781.85
2019-04-30T03:00:10.492Z,99778.75
2019-04-30T03:02:39.566Z,99780.14
2019-04-30T03:05:12.765Z,99775.03
2019-04-30T03:07:40.689Z,99773.64
2019-04-30T03:10:10.119Z,99767.99
2019-04-30T03:12:40.521Z,99768.12
2019-04-30T03:15:10.002Z,99766.92
2019-04-30T03:17:43.046Z,99766.90
2019-04-30T03:20:32.579Z,99761.39
2019-04-30T03:22:52.247Z,99761.98
2019-04-30T03:25:20.703Z,99762.91
2019-04-30T03:27:49.817Z,99758.05
2019-04-30T03:30:21.762Z,99765.70
2019-04-30T03:32:56.054Z,99760.53
2019-04-30T03:35:22.866Z,99764.94
2019-04-30T03:37:49.643Z,99758.55
2019-04-30T03:40:20.253Z,99763.13
2019-04-30T03:42:49.575Z,99754.60
2019-04-30T03:45:20.414Z,99763.04
2019-04-30T03:47:50.438Z,99759.16
2019-04-30T03:50:19.807Z,99764.55
2019-04-30T03:52:50.365Z,99765.03
2019-04-30T03:55:20.577Z,99762.95
2019-04-30T03:57:51.672Z,99769.08
2019-04-30T04:00:20.515Z,99765.30
2019-04-30T04:02:50.118Z,99763.83
2019-04-30T04:05:20.403Z,99766.68
2019-04-30T04:07:53.045Z,99762.58
2019-04-30T04:10:22.168Z,99765.37
2019-04-30T04:12:51.183Z,99767.01
2019-04-30T04:15:20.057Z,99770.47
2019-04-30T04:17:50.393Z,99760.05
2019-04-30T04:20:20.532Z,99765.22
2019-04-30T04:22:49.701Z,99763.98
2019-04-30T04:25:20.459Z,99767.23
2019-04-30T04:27:50.923Z,99774.64
2019-04-30T04:30:20.443Z,99781.84
2019-04-30T04:32:50.083Z,99776.11
2019-04-30T04:35:19.933Z,99784.98
2019-04-30T04:37:49.519Z,99779.30
2019-04-30T04:40:21.121Z,99782.25
2019-04-30T04:42:49.303Z,99773.37
2019-04-30T04:45:19.825Z,99778.31
2019-04-30T04:47:50.422Z,99776.08
2019-04-30T04:50:20.058Z,99774.92
2019-04-30T04:52:49.616Z,99778.34
2019-04-30T04:55:21.733Z,99779.89
2019-04-30T04:57:50.031Z,99780.89
2019-04-30T05:00:19.415Z,99786.50
2019-04-30T05:02:52.519Z,99781.77
2019-04-30T05:05:20.874Z,99787.73
2019-04-30T05:07:49.255Z,99782.88
2019-04-30T05:10:19.222Z,99783.20
2019-04-30T05:12:50.630Z,99780.00
2019-04-30T05:15:19.443Z,99786.37
2019-04-30T05:17:49.438Z,99780.27
2019-04-30T05:20:19.455Z,99787.07
2019-04-30T05:22:48.863Z,99785.13
2019-04-30T05:25:18.628Z,99782.42
2019-04-30T05:27:48.813Z,99781.09
2019-04-30T05:30:19.350Z,99789.42
2019-04-30T05:32:50.444Z,99792.83
2019-04-30T05:35:18.605Z,99792.92
2019-04-30T05:37:47.142Z,99797.58
2019-04-30T05:40:15.567Z,99797.10
2019-04-30T05:42:43.969Z,99802.52
2019-04-30T05:45:13.271Z,99806.54
2019-04-30T05:47:41.659Z,99802.60
2019-04-30T05:50:10.156Z,99807.50
2019-04-30T05:52:39.693Z,99807.66
2019-04-30T05:55:08.798Z,99809.20
2019-04-30T05:57:40.760Z,99811.00
2019-04-30T06:00:09.909Z,99810.29
2019-04-30T06:02:39.898Z,99813.39
2019-04-30T06:05:08.824Z,99811.16
2019-04-30T06:07:39.314Z,99809.97
2019-04-30T06:10:09.836Z,99811.83
2019-04-30T06:12:39.931Z,99818.77
2019-04-30T06:15:26.507Z,99815.14
2019-04-30T06:18:02.869Z,99818.48
2019-04-30T06:20:26.561Z,99821.02
2019-04-30T06:22:56.900Z,99818.00
2019-04-30T06:25:32.385Z,99817.09
2019-04-30T06:27:58.831Z,99822.38
2019-04-30T06:30:27.160Z,99824.64
2019-04-30T06:32:55.689Z,99822.97
2019-04-30T06:35:24.714Z,99821.70
2019-04-30T06:37:53.211Z,99827.47
2019-04-30T06:40:21.743Z,99819.83
2019-04-30T06:42:50.526Z,99826.16
2019-04-30T06:45:19.248Z,99821.73
2019-04-30T06:47:48.938Z,99824.00
2019-04-30T06:50:19.407Z,99813.26
2019-04-30T06:52:56.362Z,99819.19
2019-04-30T06:55:19.256Z,99826.67
2019-04-30T06:57:49.714Z,99832.95
2019-04-30T07:00:20.675Z,99825.95
2019-04-30T07:02:49.464Z,99822.60
2019-04-30T07:05:18.552Z,99828.08
2019-04-30T07:08:09.291Z,99823.98
2019-04-30T07:10:34.498Z,99818.41
2019-04-30T07:13:04.562Z,99816.34
2019-04-30T07:15:33.380Z,99819.95
2019-04-30T07:18:02.083Z,99822.95
2019-04-30T07:20:33.961Z,99822.30
2019-04-30T07:23:03.266Z,99829.82
2019-04-30T07:25:31.563Z,99821.05
2019-04-30T07:27:59.976Z,99828.93
2019-04-30T07:30:30.692Z,99825.86
2019-04-30T07:35:03.440Z,99817.53
2019-04-30T07:37:31.949Z,99828.63
2019-04-30T07:40:00.332Z,99827.81
2019-04-30T07:42:29.466Z,99828.98
2019-04-30T07:45:00.683Z,99825.63
2019-04-30T07:47:29.562Z,99833.48
2019-04-30T07:50:00.689Z,99832.90
2019-04-30T07:52:33.321Z,99832.83
2019-04-30T07:55:00.638Z,99834.39
2019-04-30T07:57:29.147Z,99833.02
